Time;durP1;ratioP1;P1;durP2;ratioP2;P2;SDS_P1;SDS_P2;PMS_P1;PMS_P2;Temp;Humidity;BMP_temperature;BMP_pressure;BME280_temperature;BME280_humidity;BME280_pressure;Samples;Min_cycle;Max_cycle;Signal;HPM_P1;HPM_P2
2024/01/05 00:01:53;;;;;;;;;;;;;;;11.52;51.68;99864.84;4920366;28;117935;-65
2024/01/05 00:04:19;;;;;;;;;;;;;;;11.51;51.73;99861.34;4936528;28;125141;-63
2024/01/05 00:06:45;;;;;;;;;;;;;;;11.51;51.59;99863.19;4939280;28;103121;-66
2024/01/05 00:09:11;;;;;;;;;;;;;;;11.50;51.50;99865.09;4922995;28;129530;-65
2024/01/05 00:11:37;;;;;;;;;;;;;;;11.50;51.59;99861.59;4917402;28;117595;-65
2024/01/05 00:14:03;;;;;;;;;;;;;;;11.48;51.49;99853.00;4922078;28;119268;-65
2024/01/05 00:16:29;;;;;;;;;;;;;;;11.49;51.69;99854.59;4949883;28;103066;-65
2024/01/05 00:18:55;;;;;;;;;;;;;;;11.48;51.63;99861.91;4917403;28;98141;-65
2024/01/05 00:21:25;;;;;;;;;;;;;;;11.47;51.73;99862.97;4918483;28;99620;-65
2024/01/05 00:23:52;;;;;;;;;;;;;;;11.48;51.67;99859.22;4922374;28;97961;-65
2024/01/05 00:26:18;;;;;;;;;;;;;;;11.47;51.57;99851.38;4934484;28;108053;-65
2024/01/05 00:28:45;;;;;;;;;;;;;;;11.46;51.58;99852.47;4919753;28;99400;-63
2024/01/05 00:31:12;;;;;;;;;;;;;;;11.46;51.62;99853.28;4936833;28;97981;-63
2024/01/05 00:33:39;;;;;;;;;;;;;;;11.45;51.74;99843.59;4934922;28;98301;-63
2024/01/05 00:36:06;;;;;;;;;;;;;;;11.45;51.62;99843.59;4935965;28;100508;-65
2024/01/05 00:38:32;;;;;;;;;;;;;;;11.45;51.59;99843.59;4934635;28;98378;-63
2024/01/05 00:40:57;;;;;;;;;;;;;;;11.44;51.60;99847.38;4922341;28;97979;-65
2024/01/05 00:43:23;;;;;;;;;;;;;;;11.44;51.61;99854.69;4936177;28;118665;-65
2024/01/05 00:45:49;;;;;;;;;;;;;;;11.44;51.74;99851.97;4918621;28;127764;-65
2024/01/05 00:48:15;;;;;;;;;;;;;;;11.43;51.48;99845.75;4934286;28;98552;-63
2024/01/05 00:50:41;;;;;;;;;;;;;;;11.44;51.57;99841.19;4916008;28;117752;-65
2024/01/05 00:53:07;;;;;;;;;;;;;;;11.44;51.52;99838.47;4929450;28;127803;-65
2024/01/05 00:55:33;;;;;;;;;;;;;;;11.43;51.57;99834.97;4919070;28;129605;-63
2024/01/05 00:57:59;;;;;;;;;;;;;;;11.42;51.57;99830.66;4921568;28;97988;-66
2024/01/05 01:00:25;;;;;;;;;;;;;;;11.42;51.74;99827.97;4935120;28;119022;-63
2024/01/05 01:02:52;;;;;;;;;;;;;;;11.43;51.71;99836.84;4936711;28;109041;-65
2024/01/05 01:05:18;;;;;;;;;;;;;;;11.42;51.62;99841.44;4932587;28;98222;-63
2024/01/05 01:07:44;;;;;;;;;;;;;;;11.42;51.52;99846.84;4921953;28;99343;-63
2024/01/05 01:10:10;;;;;;;;;;;;;;;11.42;51.61;99841.44;4935696;28;98138;-63
2024/01/05 01:12:36;;;;;;;;;;;;;;;11.42;51.58;99849.53;4923046;28;109461;-63
2024/01/05 01:15:02;;;;;;;;;;;;;;;11.43;51.57;99855.75;4934440;28;116996;-63
2024/01/05 01:17:31;;;;;;;;;;;;;;;11.43;51.53;99848.44;4940595;28;98122;-63
2024/01/05 01:19:57;;;;;;;;;;;;;;;11.42;51.64;99852.25;4939465;28;98290;-63
2024/01/05 01:22:23;;;;;;;;;;;;;;;11.43;51.52;99853.03;4922596;28;129183;-66
2024/01/05 01:24:49;;;;;;;;;;;;;;;11.42;51.60;99838.75;4937371;28;128867;-63
2024/01/05 01:27:15;;;;;;;;;;;;;;;11.43;51.49;99834.97;4926000;28;99374;-63
2024/01/05 01:29:42;;;;;;;;;;;;;;;11.44;51.64;99827.69;4935099;28;102611;-63
2024/01/05 01:32:11;;;;;;;;;;;;;;;11.44;51.36;99835.78;4919377;28;98329;-63
2024/01/05 01:34:38;;;;;;;;;;;;;;;11.42;51.57;99837.97;4925555;28;100371;-63
2024/01/05 01:37:04;;;;;;;;;;;;;;;11.43;51.66;99837.66;4938293;28;106926;-66
2024/01/05 01:39:30;;;;;;;;;;;;;;;11.43;51.59;99839.56;4938207;28;117621;-65
2024/01/05 01:41:57;;;;;;;;;;;;;;;11.43;51.53;99840.34;4937968;28;99327;-65
2024/01/05 01:44:23;;;;;;;;;;;;;;;11.43;51.59;99836.84;4924707;28;120354;-63
2024/01/05 01:46:50;;;;;;;;;;;;;;;11.42;51.66;99830.66;4919591;28;97966;-65
2024/01/05 01:49:16;;;;;;;;;;;;;;;11.42;51.43;99827.16;4937933;28;98105;-63
2024/01/05 01:51:42;;;;;;;;;;;;;;;11.42;51.59;99821.75;4922827;28;121208;-63
2024/01/05 01:54:08;;;;;;;;;;;;;;;11.42;51.51;99827.97;4922694;28;98339;-66
2024/01/05 01:56:34;;;;;;;;;;;;;;;11.42;51.50;99832.56;4921032;28;113651;-65
2024/01/05 01:59:01;;;;;;;;;;;;;;;11.41;51.61;99830.97;4936808;28;98443;-63
2024/01/05 02:01:27;;;;;;;;;;;;;;;11.41;51.52;99828.25;4920895;28;110031;-66
2024/01/05 02:03:54;;;;;;;;;;;;;;;11.41;51.43;99830.97;4924469;28;99283;-63
2024/01/05 02:06:20;;;;;;;;;;;;;;;11.42;51.51;99821.75;4921406;28;98033;-65
2024/01/05 02:08:47;;;;;;;;;;;;;;;11.42;51.56;99827.97;4923017;28;98118;-65
2024/01/05 02:11:16;;;;;;;;;;;;;;;11.42;51.42;99821.75;4920987;28;99739;-65
2024/01/05 02:13:42;;;;;;;;;;;;;;;11.42;51.49;99825.25;4939314;28;126679;-65
2024/01/05 02:16:08;;;;;;;;;;;;;;;11.43;51.44;99823.34;4936273;28;98364;-66
2024/01/05 02:18:34;;;;;;;;;;;;;;;11.42;51.53;99822.56;4936071;28;97988;-63
2024/01/05 02:21:01;;;;;;;;;;;;;;;11.44;51.61;99811.50;4937815;28;106939;-65
2024/01/05 02:23:27;;;;;;;;;;;;;;;11.44;51.64;99806.09;4953725;28;98087;-67
2024/01/05 02:25:56;;;;;;;;;;;;;;;11.43;51.38;99802.56;4920482;28;99063;-63
2024/01/05 02:28:22;;;;;;;;;;;;;;;11.43;51.51;99807.97;4937328;28;98274;-63
2024/01/05 02:30:48;;;;;;;;;;;;;;;11.43;51.53;99802.56;4919454;28;117905;-65
2024/01/05 02:33:14;;;;;;;;;;;;;;;11.43;51.60;99797.19;4922646;28;102448;-63
2024/01/05 02:35:40;;;;;;;;;;;;;;;11.43;51.51;99797.19;4915990;28;98197;-66
2024/01/05 02:38:06;;;;;;;;;;;;;;;11.43;51.43;99801.78;4920601;28;97946;-63
2024/01/05 02:40:33;;;;;;;;;;;;;;;11.43;51.44;99796.38;4923215;28;103682;-63
2024/01/05 02:42:59;;;;;;;;;;;;;;;11.42;51.44;99794.78;4919660;28;98202;-65
2024/01/05 02:45:25;;;;;;;;;;;;;;;11.42;51.51;99795.56;4931282;28;128258;-64
2024/01/05 02:47:51;;;;;;;;;;;;;;;11.42;51.43;99792.88;4925292;28;98066;-63
2024/01/05 02:50:20;;;;;;;;;;;;;;;11.42;51.41;99797.47;4934253;28;99516;-63
2024/01/05 02:52:46;;;;;;;;;;;;;;;11.43;51.54;99796.38;4938679;28;98655;-63
2024/01/05 02:55:12;;;;;;;;;;;;;;;11.42;51.26;99789.38;4921284;28;107116;-65
2024/01/05 02:57:38;;;;;;;;;;;;;;;11.41;51.76;99783.19;4925707;28;117124;-63
2024/01/05 03:00:05;;;;;;;;;;;;;;;11.42;51.36;99781.28;4952591;28;98436;-66
2024/01/05 03:02:31;;;;;;;;;;;;;;;11.42;51.54;99778.59;4921639;28;120160;-63
2024/01/05 03:04:57;;;;;;;;;;;;;;;11.42;51.52;99784.78;4935340;28;98243;-63
2024/01/05 03:07:24;;;;;;;;;;;;;;;11.42;51.41;99783.97;4921201;28;98990;-63
2024/01/05 03:09:50;;;;;;;;;;;;;;;11.41;51.55;99779.69;4919047;28;99818;-63
2024/01/05 03:12:17;;;;;;;;;;;;;;;11.41;51.49;99783.19;4946885;28;114211;-66
2024/01/05 03:14:43;;;;;;;;;;;;;;;11.40;51.52;99778.09;4922269;28;119322;-63
2024/01/05 03:17:09;;;;;;;;;;;;;;;11.41;51.60;99772.38;4920568;28;117664;-65
2024/01/05 03:19:35;;;;;;;;;;;;;;;11.42;51.42;99781.28;4934848;28;103099;-67
2024/01/05 03:22:04;;;;;;;;;;;;;;;11.41;51.67;99777.78;4920727;28;119070;-63
2024/01/05 03:24:30;;;;;;;;;;;;;;;11.41;51.62;99772.38;4917370;28;98907;-63
2024/01/05 03:26:57;;;;;;;;;;;;;;;11.42;51.46;99765.09;4918914;28;98202;-65
2024/01/05 03:29:23;;;;;;;;;;;;;;;11.41;51.71;99768.88;4929836;28;120548;-65
2024/01/05 03:31:49;;;;;;;;;;;;;;;11.42;51.42;99773.19;4923569;28;128378;-64
2024/01/05 03:34:15;;;;;;;;;;;;;;;11.41;51.50;99764.28;4920108;28;98346;-65
2024/01/05 03:36:41;;;;;;;;;;;;;;;11.41;51.43;99755.41;4925191;28;111306;-63
2024/01/05 03:39:07;;;;;;;;;;;;;;;11.41;51.67;99756.19;4949406;28;98234;-66
2024/01/05 03:41:34;;;;;;;;;;;;;;;11.41;51.44;99750.00;4921512;28;98473;-65
2024/01/05 03:44:00;;;;;;;;;;;;;;;11.41;51.43;99748.09;4933595;28;117422;-63
2024/01/05 03:46:26;;;;;;;;;;;;;;;11.41;51.49;99745.41;4935693;28;98756;-65
2024/01/05 03:48:52;;;;;;;;;;;;;;;11.40;51.52;99746.50;4935977;28;98263;-63
2024/01/05 03:51:18;;;;;;;;;;;;;;;11.40;51.60;99745.69;4948066;28;98965;-66
2024/01/05 03:53:44;;;;;;;;;;;;;;;11.40;51.42;99746.50;4933055;28;98215;-65
2024/01/05 03:56:10;;;;;;;;;;;;;;;11.40;51.54;99749.19;4917055;28;104460;-66
2024/01/05 03:58:36;;;;;;;;;;;;;;;11.41;51.49;99736.50;4932884;28;129402;-63
2024/01/05 04:01:03;;;;;;;;;;;;;;;11.41;51.33;99737.31;4936915;28;98421;-65
2024/01/05 04:03:29;;;;;;;;;;;;;;;11.40;51.42;99732.22;4916257;28;99381;-65
2024/01/05 04:05:56;;;;;;;;;;;;;;;11.41;51.47;99725.72;4936028;28;112795;-65
2024/01/05 04:08:22;;;;;;;;;;;;;;;11.42;51.51;99719.22;4929920;28;99518;-63
2024/01/05 04:10:48;;;;;;;;;;;;;;;11.42;51.46;99716.53;4936351;28;99119;-65
2024/01/05 04:13:15;;;;;;;;;;;;;;;11.41;51.42;99707.63;4932077;28;98147;-63
2024/01/05 04:15:41;;;;;;;;;;;;;;;11.41;51.65;99704.94;4919542;28;99573;-65
2024/01/05 04:18:07;;;;;;;;;;;;;;;11.41;51.54;99701.44;4933388;28;127724;-65
2024/01/05 04:20:33;;;;;;;;;;;;;;;11.41;51.46;99698.72;4931650;28;98379;-63
2024/01/05 04:22:59;;;;;;;;;;;;;;;11.41;51.46;99691.44;4935587;28;100281;-63
2024/01/05 04:25:25;;;;;;;;;;;;;;;11.40;51.48;99692.53;4915186;28;99456;-65
2024/01/05 04:27:52;;;;;;;;;;;;;;;11.40;51.43;99689.84;4930125;28;100432;-65
2024/01/05 04:30:20;;;;;;;;;;;;;;;11.39;51.31;99684.72;4932458;28;98582;-65
2024/01/05 04:32:46;;;;;;;;;;;;;;;11.39;51.55;99680.13;4931466;28;97976;-65
2024/01/05 04:35:12;;;;;;;;;;;;;;;11.38;51.52;99675.81;4920270;28;112459;-66
2024/01/05 04:37:38;;;;;;;;;;;;;;;11.39;51.28;99673.91;4931248;28;98484;-65
2024/01/05 04:40:06;;;;;;;;;;;;;;;11.38;51.37;99670.41;4913187;28;111428;-64
2024/01/05 04:42:32;;;;;;;;;;;;;;;11.39;51.20;99671.22;4919543;28;100150;-63
2024/01/05 04:44:58;;;;;;;;;;;;;;;11.39;51.49;99663.13;4919798;28;98419;-66
2024/01/05 04:47:25;;;;;;;;;;;;;;;11.39;51.45;99655.81;4938290;28;98220;-63
2024/01/05 04:49:50;;;;;;;;;;;;;;;11.39;51.55;99663.13;4923565;28;98070;-63
2024/01/05 04:52:16;;;;;;;;;;;;;;;11.39;51.62;99655.03;4940535;28;125171;-65
2024/01/05 04:54:43;;;;;;;;;;;;;;;11.38;51.49;99638.03;4920251;28;117744;-63
2024/01/05 04:57:09;;;;;;;;;;;;;;;11.39;51.53;99638.84;4922348;28;98529;-64
2024/01/05 04:59:36;;;;;;;;;;;;;;;11.39;51.39;99638.84;4922308;28;98251;-64
2024/01/05 05:02:03;;;;;;;;;;;;;;;11.39;51.53;99631.53;4935165;28;98066;-63
2024/01/05 05:04:29;;;;;;;;;;;;;;;11.39;51.44;99642.34;4921928;28;97992;-63
2024/01/05 05:06:55;;;;;;;;;;;;;;;11.39;51.53;99636.94;4923160;28;98153;-66
2024/01/05 05:09:21;;;;;;;;;;;;;;;11.40;51.53;99635.06;4922458;28;129740;-63
2024/01/05 05:11:47;;;;;;;;;;;;;;;11.37;51.47;99633.75;4938599;28;98162;-65
2024/01/05 05:14:13;;;;;;;;;;;;;;;11.38;51.46;99624.56;4922432;28;98273;-63
2024/01/05 05:16:40;;;;;;;;;;;;;;;11.39;51.40;99636.94;4935802;28;100186;-64
2024/01/05 05:19:06;;;;;;;;;;;;;;;11.39;51.71;99636.16;4937012;28;106157;-64
2024/01/05 05:21:32;;;;;;;;;;;;;;;11.38;51.40;99626.44;4920584;28;102070;-63
2024/01/05 05:23:58;;;;;;;;;;;;;;;11.38;51.42;99615.66;4940339;28;98178;-66
2024/01/05 05:26:25;;;;;;;;;;;;;;;11.38;51.39;99612.97;4938574;28;128789;-63
2024/01/05 05:28:51;;;;;;;;;;;;;;;11.37;51.42;99620.25;4936748;28;98168;-65
2024/01/05 05:31:17;;;;;;;;;;;;;;;11.37;51.59;99619.47;4915603;28;99586;-63
2024/01/05 05:33:44;;;;;;;;;;;;;;;11.37;51.42;99630.25;4937497;28;98135;-63
2024/01/05 05:36:10;;;;;;;;;;;;;;;11.37;51.41;99638.34;4923063;28;100611;-66
2024/01/05 05:38:35;;;;;;;;;;;;;;;11.36;51.39;99645.63;4933035;28;126663;-65
2024/01/05 05:41:01;;;;;;;;;;;;;;;11.36;51.08;99655.59;4920494;28;130635;-65
2024/01/05 05:43:27;;;;;;;;;;;;;;;11.37;51.55;99658.03;4936289;28;108951;-65
2024/01/05 05:45:54;;;;;;;;;;;;;;;11.37;51.46;99663.44;4932689;28;97923;-65
2024/01/05 05:48:21;;;;;;;;;;;;;;;11.36;51.49;99672.63;4925359;28;101279;-63
2024/01/05 05:50:47;;;;;;;;;;;;;;;11.38;51.31;99677.72;4935082;28;100082;-65
2024/01/05 05:53:13;;;;;;;;;;;;;;;11.38;51.44;99675.81;4920425;28;98067;-63
2024/01/05 05:55:39;;;;;;;;;;;;;;;11.37;51.43;99658.03;4923187;28;102989;-65
2024/01/05 05:58:07;;;;;;;;;;;;;;;11.38;51.34;99656.94;4926617;28;130971;-65
2024/01/05 06:00:35;;;;;;;;;;;;;;;11.39;51.47;99653.13;4932178;28;99997;-67
2024/01/05 06:03:01;;;;;;;;;;;;;;;11.39;51.44;99649.63;4953607;28;98231;-63
2024/01/05 06:05:27;;;;;;;;;;;;;;;11.39;51.39;99650.44;4937866;28;112814;-65
2024/01/05 06:07:53;;;;;;;;;;;;;;;11.40;51.37;99653.97;4921095;28;106708;-65
2024/01/05 06:10:19;;;;;;;;;;;;;;;11.40;51.44;99651.25;4917350;28;127781;-64
2024/01/05 06:12:45;;;;;;;;;;;;;;;11.39;51.59;99653.13;4920523;28;98358;-64
2024/01/05 06:15:11;;;;;;;;;;;;;;;11.40;51.54;99662.84;4904187;28;108523;-67
2024/01/05 06:17:37;;;;;;;;;;;;;;;11.39;51.42;99663.13;4922459;28;114824;-64
2024/01/05 06:20:04;;;;;;;;;;;;;;;11.36;51.41;99661.84;4919136;28;98430;-64
2024/01/05 06:22:30;;;;;;;;;;;;;;;11.34;51.48;99666.69;4927144;28;98605;-64
2024/01/05 06:24:56;;;;;;;;;;;;;;;11.31;51.63;99651.88;4923779;28;99173;-64
2024/01/05 06:27:22;;;;;;;;;;;;;;;11.30;51.44;99653.00;4932772;28;124508;-64
2024/01/05 06:29:49;;;;;;;;;;;;;;;11.30;51.32;99655.69;4952385;28;98385;-64
2024/01/05 06:32:15;;;;;;;;;;;;;;;11.28;51.12;99651.69;4937373;28;98555;-66
2024/01/05 06:34:41;;;;;;;;;;;;;;;11.26;51.37;99646.56;4923717;28;101522;-64
2024/01/05 06:37:08;;;;;;;;;;;;;;;11.27;51.47;99644.69;4956292;28;98382;-64
2024/01/05 06:39:34;;;;;;;;;;;;;;;11.26;51.22;99651.16;4955943;28;98263;-64
2024/01/05 06:42:00;;;;;;;;;;;;;;;11.26;51.43;99648.47;4938032;28;98157;-66
2024/01/05 06:44:26;;;;;;;;;;;;;;;11.26;51.50;99640.38;4932829;28;127926;-66
2024/01/05 06:46:52;;;;;;;;;;;;;;;11.24;51.37;99646.06;4922441;28;98349;-64
2024/01/05 06:49:19;;;;;;;;;;;;;;;11.23;51.41;99641.75;4921314;28;98959;-64
2024/01/05 06:51:45;;;;;;;;;;;;;;;11.23;51.41;99641.75;4918602;28;102565;-66
2024/01/05 06:54:13;;;;;;;;;;;;;;;11.24;51.46;99645.28;4918817;28;98531;-64
2024/01/05 06:56:42;;;;;;;;;;;;;;;11.24;51.49;99642.59;4937521;28;98338;-64
2024/01/05 06:59:09;;;;;;;;;;;;;;;11.22;51.58;99645.56;4934958;28;99478;-66
2024/01/05 07:01:34;;;;;;;;;;;;;;;11.22;51.25;99642.84;4933066;28;98531;-66
2024/01/05 07:04:01;;;;;;;;;;;;;;;11.22;51.50;99637.47;4918645;28;128399;-64
2024/01/05 07:06:27;;;;;;;;;;;;;;;11.22;51.43;99642.06;4920770;28;98098;-64
2024/01/05 07:08:53;;;;;;;;;;;;;;;11.22;51.42;99642.06;4938142;27;118100;-66
2024/01/05 07:11:21;;;;;;;;;;;;;;;11.23;51.36;99638.25;4931978;27;98234;-66
2024/01/05 07:13:47;;;;;;;;;;;;;;;11.23;51.38;99632.88;4933654;27;98166;-64
2024/01/05 07:16:20;;;;;;;;;;;;;;;11.22;51.33;99626.66;4953093;27;98808;-64
2024/01/05 07:18:47;;;;;;;;;;;;;;;11.23;51.42;99614.78;4970521;27;99901;-66
2024/01/05 07:21:13;;;;;;;;;;;;;;;11.22;51.44;99620.47;4956080;27;98327;-64
2024/01/05 07:23:40;;;;;;;;;;;;;;;11.24;51.36;99621.81;4955032;27;100059;-66
2024/01/05 07:26:05;;;;;;;;;;;;;;;11.26;51.35;99616.09;4937003;27;99358;-66
2024/01/05 07:28:32;;;;;;;;;;;;;;;11.26;51.33;99614.19;4949577;27;106028;-64
2024/01/05 07:30:57;;;;;;;;;;;;;;;11.27;51.47;99623.09;4941567;27;98861;-66
2024/01/05 07:33:23;;;;;;;;;;;;;;;11.28;51.25;99625.50;4959042;27;111622;-66
2024/01/05 07:35:49;;;;;;;;;;;;;;;11.30;51.51;99623.31;4938103;27;125899;-64
2024/01/05 07:38:15;;;;;;;;;;;;;;;11.34;51.01;99614.63;4952989;27;126949;-66
2024/01/05 07:40:41;;;;;;;;;;;;;;;11.37;51.41;99616.75;4951520;27;113162;-66
2024/01/05 07:43:10;;;;;;;;;;;;;;;11.40;51.28;99621.56;4938191;27;119334;-64
2024/01/05 07:45:36;;;;;;;;;;;;;;;11.45;51.09;99614.19;4940158;27;98393;-64
2024/01/05 07:48:02;;;;;;;;;;;;;;;11.47;51.28;99622.78;4932501;27;128765;-66
2024/01/05 07:50:28;;;;;;;;;;;;;;;11.52;51.17;99624.63;4936490;27;98238;-67
2024/01/05 07:52:54;;;;;;;;;;;;;;;11.57;51.07;99626.44;4951803;27;98287;-67
2024/01/05 07:55:20;;;;;;;;;;;;;;;11.58;51.10;99626.13;4950535;27;128381;-64
2024/01/05 07:57:46;;;;;;;;;;;;;;;11.61;51.00;99620.16;4939902;27;111273;-64
2024/01/05 08:00:12;;;;;;;;;;;;;;;11.62;51.33;99608.25;4953867;27;99955;-64
2024/01/05 08:02:38;;;;;;;;;;;;;;;11.64;51.04;99599.88;4951873;27;99260;-67
2024/01/05 08:05:05;;;;;;;;;;;;;;;11.66;51.13;99601.16;4936906;27;99779;-67
2024/01/05 08:07:31;;;;;;;;;;;;;;;11.70;51.20;99596.78;4946610;27;108610;-64
2024/01/05 08:09:56;;;;;;;;;;;;;;;11.73;51.02;99603.50;4936300;27;98016;-67
2024/01/05 08:12:22;;;;;;;;;;;;;;;11.73;51.11;99596.19;4946511;27;127269;-65
2024/01/05 08:14:48;;;;;;;;;;;;;;;11.75;51.16;99591.31;4946614;27;129592;-64
2024/01/05 08:17:14;;;;;;;;;;;;;;;11.76;51.16;99589.41;4950724;27;101148;-67
2024/01/05 08:19:40;;;;;;;;;;;;;;;11.78;51.12;99585.31;4953904;27;98776;-66
2024/01/05 08:22:06;;;;;;;;;;;;;;;11.84;51.13;99587.97;4953190;27;98275;-67
2024/01/05 08:24:32;;;;;;;;;;;;;;;11.88;50.97;99583.56;4942929;27;114330;-64
2024/01/05 08:26:58;;;;;;;;;;;;;;;11.91;50.89;99586.50;4958865;27;100084;-67
2024/01/05 08:29:24;;;;;;;;;;;;;;;11.94;51.04;99585.88;4942185;27;98450;-66
2024/01/05 08:31:51;;;;;;;;;;;;;;;11.97;50.96;99573.69;4941909;27;128662;-68
2024/01/05 08:34:17;;;;;;;;;;;;;;;11.99;51.05;99566.09;4957494;27;98312;-66
2024/01/05 08:36:44;;;;;;;;;;;;;;;12.03;50.87;99567.09;4972858;27;98382;-64
2024/01/05 08:39:10;;;;;;;;;;;;;;;12.10;51.05;99553.97;4942518;28;98270;-67
2024/01/05 08:41:36;;;;;;;;;;;;;;;12.17;50.73;99548.97;4943976;27;117395;-64
2024/01/05 08:44:02;;;;;;;;;;;;;;;12.28;50.92;99560.41;4944379;27;98172;-64
2024/01/05 08:46:28;;;;;;;;;;;;;;;12.39;50.83;99552.91;4972534;27;98704;-67
2024/01/05 08:48:54;;;;;;;;;;;;;;;12.47;50.64;99547.59;4959061;27;98423;-67
2024/01/05 08:51:20;;;;;;;;;;;;;;;12.55;50.56;99539.88;4941965;28;103007;-67
2024/01/05 08:53:46;;;;;;;;;;;;;;;12.67;50.44;99540.94;4938955;27;98385;-64
2024/01/05 08:56:13;;;;;;;;;;;;;;;12.75;50.30;99542.94;4939106;27;103115;-64
2024/01/05 08:58:39;;;;;;;;;;;;;;;12.81;50.52;99549.06;4972449;27;98733;-67
2024/01/05 09:01:05;;;;;;;;;;;;;;;12.84;50.44;99553.84;4950992;27;112893;-64
2024/01/05 09:03:31;;;;;;;;;;;;;;;12.89;50.35;99553.75;4958486;28;98289;-67
2024/01/05 09:05:58;;;;;;;;;;;;;;;12.94;50.61;99550.91;4956674;28;117066;-64
2024/01/05 09:08:24;;;;;;;;;;;;;;;13.07;50.68;99553.88;4960868;27;98228;-64
2024/01/05 09:10:50;;;;;;;;;;;;;;;13.18;50.60;99552.53;4958384;27;99476;-64
2024/01/05 09:13:16;;;;;;;;;;;;;;;13.29;50.63;99562.06;4954704;27;104689;-67
2024/01/05 09:15:43;;;;;;;;;;;;;;;13.40;50.50;99560.72;4938548;27;116402;-67
2024/01/05 09:18:08;;;;;;;;;;;;;;;13.50;50.52;99563.16;4941798;28;98270;-67
2024/01/05 09:20:35;;;;;;;;;;;;;;;13.59;50.64;99555.09;4954339;27;98403;-67
2024/01/05 09:23:03;;;;;;;;;;;;;;;13.69;50.57;99562.16;4952300;28;106329;-64
2024/01/05 09:25:30;;;;;;;;;;;;;;;13.73;50.78;99552.31;4960437;27;98935;-64
2024/01/05 09:27:59;;;;;;;;;;;;;;;13.80;50.80;99552.69;4944881;27;98283;-64
2024/01/05 09:30:25;;;;;;;;;;;;;;;13.89;50.32;99544.59;4943831;27;99787;-64
2024/01/05 09:32:52;;;;;;;;;;;;;;;13.93;50.40;99546.34;4937251;27;99905;-64
2024/01/05 09:35:18;;;;;;;;;;;;;;;13.99;50.54;99547.84;4939906;28;105584;-68
2024/01/05 09:37:44;;;;;;;;;;;;;;;14.03;50.42;99549.91;4938780;27;98254;-65
2024/01/05 09:40:11;;;;;;;;;;;;;;;14.06;50.51;99549.28;4956677;27;99528;-64
2024/01/05 09:42:41;;;;;;;;;;;;;;;14.04;50.82;99551.53;4941173;27;98045;-64
2024/01/05 09:45:11;;;;;;;;;;;;;;;13.96;50.55;99553.88;4954243;27;99483;-64
2024/01/05 09:47:37;;;;;;;;;;;;;;;13.92;50.99;99547.47;4939074;27;98448;-67
2024/01/05 09:50:04;;;;;;;;;;;;;;;13.90;50.93;99549.69;4951456;27;98408;-67
2024/01/05 09:52:31;;;;;;;;;;;;;;;13.92;50.63;99536.66;4943300;28;98119;-66
2024/01/05 09:54:57;;;;;;;;;;;;;;;13.98;50.52;99545.41;4937220;27;98240;-67
2024/01/05 09:57:23;;;;;;;;;;;;;;;14.04;50.82;99546.09;4939795;28;98059;-67
2024/01/05 09:59:49;;;;;;;;;;;;;;;14.04;50.64;99541.47;4955820;27;115539;-64
2024/01/05 10:02:22;;;;;;;;;;;;;;;14.04;50.89;99544.19;4953596;27;98262;-67
2024/01/05 10:04:48;;;;;;;;;;;;;;;14.03;50.68;99544.47;4954749;27;98274;-67
2024/01/05 10:07:15;;;;;;;;;;;;;;;14.02;50.63;99538.25;4952833;27;103295;-64
2024/01/05 10:09:52;;;;;;;;;;;;;;;14.05;50.73;99543.06;4955492;27;98729;-64
2024/01/05 10:12:18;;;;;;;;;;;;;;;14.12;50.63;99535.28;4957250;27;99430;-67
2024/01/05 10:14:46;;;;;;;;;;;;;;;14.16;50.53;99536.25;4937367;27;98313;-64
2024/01/05 10:17:12;;;;;;;;;;;;;;;14.21;50.59;99527.19;4961481;27;98550;-65
2024/01/05 10:19:41;;;;;;;;;;;;;;;14.24;50.58;99527.38;4940367;27;98454;-66
2024/01/05 10:22:14;;;;;;;;;;;;;;;14.21;50.58;99538.03;4943401;27;98632;-64
2024/01/05 10:24:41;;;;;;;;;;;;;;;14.13;51.00;99528.75;4941390;27;98941;-66
2024/01/05 10:27:07;;;;;;;;;;;;;;;14.06;50.91;99530.31;4940923;27;98292;-66
2024/01/05 10:29:35;;;;;;;;;;;;;;;14.04;51.00;99532.56;4970464;27;98239;-66
2024/01/05 10:32:14;;;;;;;;;;;;;;;14.04;50.93;99535.25;4938010;27;98173;-64
2024/01/05 10:34:47;;;;;;;;;;;;;;;14.05;50.67;99534.16;4971692;27;98410;-64
2024/01/05 10:37:14;;;;;;;;;;;;;;;14.04;51.04;99525.22;4940302;27;98501;-66
2024/01/05 10:39:54;;;;;;;;;;;;;;;14.06;50.87;99522.19;4938174;27;98152;-66
2024/01/05 10:42:27;;;;;;;;;;;;;;;14.02;51.03;99529.34;4939339;27;99973;-64
2024/01/05 10:44:54;;;;;;;;;;;;;;;13.96;50.71;99513.22;4955677;27;98696;-63
2024/01/05 10:47:21;;;;;;;;;;;;;;;13.91;51.17;99526.94;4939408;27;98135;-64
2024/01/05 10:49:49;;;;;;;;;;;;;;;13.89;50.93;99515.59;4972160;27;98393;-66
2024/01/05 10:52:16;;;;;;;;;;;;;;;13.92;51.17;99503.34;4940127;27;98188;-66
2024/01/05 10:54:45;;;;;;;;;;;;;;;13.98;51.10;99508.28;4942758;27;98313;-64
2024/01/05 10:57:11;;;;;;;;;;;;;;;14.06;50.73;99503.22;4963803;27;98174;-66
2024/01/05 10:59:38;;;;;;;;;;;;;;;14.12;50.69;99499.28;4972569;27;98430;-66
2024/01/05 11:02:07;;;;;;;;;;;;;;;14.14;50.66;99489.69;4950662;27;100011;-63
2024/01/05 11:04:33;;;;;;;;;;;;;;;14.23;50.60;99489.75;4948421;27;98243;-64
2024/01/05 11:06:59;;;;;;;;;;;;;;;14.34;50.62;99487.50;4959203;27;98427;-66
2024/01/05 11:09:36;;;;;;;;;;;;;;;14.38;50.60;99483.88;4940021;27;98974;-64
2024/01/05 11:12:17;;;;;;;;;;;;;;;14.37;50.76;99484.19;4938212;28;106537;-66
2024/01/05 11:14:43;;;;;;;;;;;;;;;14.34;50.88;99479.38;4959541;28;104106;-66
2024/01/05 11:17:24;;;;;;;;;;;;;;;14.32;50.77;99473.50;4971931;27;98002;-63
2024/01/05 11:20:16;;;;;;;;;;;;;;;14.33;50.60;99472.38;4955308;27;98635;-63
2024/01/05 11:22:45;;;;;;;;;;;;;;;14.38;50.60;99464.91;4963404;27;98821;-63
2024/01/05 11:25:12;;;;;;;;;;;;;;;14.53;50.58;99463.66;4957060;27;98041;-63
2024/01/05 11:27:38;;;;;;;;;;;;;;;14.59;50.72;99450.75;4940382;27;98264;-64
2024/01/05 11:30:08;;;;;;;;;;;;;;;14.62;50.55;99458.25;4938446;28;98649;-64
2024/01/05 11:32:47;;;;;;;;;;;;;;;14.58;50.50;99465.41;4953595;27;98383;-64
2024/01/05 11:35:16;;;;;;;;;;;;;;;14.55;50.59;99461.44;4953566;27;99529;-66
2024/01/05 11:37:45;;;;;;;;;;;;;;;14.55;50.46;99453.31;4969196;27;99461;-66
2024/01/05 11:40:28;;;;;;;;;;;;;;;14.67;50.47;99449.97;4948198;27;100873;-64
2024/01/05 11:42:54;;;;;;;;;;;;;;;14.78;50.33;99443.09;4954566;27;99332;-66
2024/01/05 11:45:45;;;;;;;;;;;;;;;14.77;50.64;99444.19;4935508;27;98287;-64
2024/01/05 11:48:33;;;;;;;;;;;;;;;14.75;50.54;99438.31;4967108;27;98182;-66
2024/01/05 11:51:02;;;;;;;;;;;;;;;14.83;50.40;99423.16;4954301;27;99471;-64
2024/01/05 11:53:28;;;;;;;;;;;;;;;14.92;50.54;99413.88;4967199;27;99692;-64
2024/01/05 11:55:56;;;;;;;;;;;;;;;14.94;50.63;99408.16;4931585;27;99729;-66
2024/01/05 11:58:31;;;;;;;;;;;;;;;15.02;50.46;99410.03;4970402;27;98233;-64
2024/01/05 12:00:58;;;;;;;;;;;;;;;15.15;50.26;99391.97;4954786;27;98331;-64
2024/01/05 12:03:25;;;;;;;;;;;;;;;15.18;50.43;99389.41;4939517;27;98141;-66
2024/01/05 12:06:01;;;;;;;;;;;;;;;15.16;50.23;99388.91;4952970;27;98042;-64
2024/01/05 12:08:27;;;;;;;;;;;;;;;15.19;50.20;99392.91;4966345;27;98432;-66
2024/01/05 12:10:54;;;;;;;;;;;;;;;15.23;50.41;99391.94;4968213;27;98343;-64
2024/01/05 12:13:27;;;;;;;;;;;;;;;15.34;50.18;99399.75;4970088;27;98421;-64
2024/01/05 12:15:53;;;;;;;;;;;;;;;15.43;50.40;99392.38;4956131;27;99043;-64
2024/01/05 12:18:25;;;;;;;;;;;;;;;15.52;50.22;99389.59;4954317;27;99103;-63
2024/01/05 12:20:55;;;;;;;;;;;;;;;15.37;50.47;99389.03;4942432;27;99316;-66
2024/01/05 12:23:21;;;;;;;;;;;;;;;15.31;50.64;99408.53;4962381;27;98550;-66
2024/01/05 12:26:01;;;;;;;;;;;;;;;15.23;50.79;99405.50;4937806;27;98282;-66
2024/01/05 12:28:29;;;;;;;;;;;;;;;15.21;50.54;99404.25;4974532;27;98201;-64
2024/01/05 12:30:56;;;;;;;;;;;;;;;15.14;50.72;99407.47;4952195;27;98148;-66
2024/01/05 12:33:23;;;;;;;;;;;;;;;15.06;50.81;99410.19;4938943;27;98101;-64
2024/01/05 12:35:52;;;;;;;;;;;;;;;15.00;50.80;99406.06;4956125;27;100084;-64
2024/01/05 12:38:28;;;;;;;;;;;;;;;14.91;50.85;99406.88;4940620;28;97936;-64
2024/01/05 12:41:11;;;;;;;;;;;;;;;14.81;50.97;99409.09;4943619;27;98955;-66
2024/01/05 12:43:38;;;;;;;;;;;;;;;14.69;50.97;99415.97;4944859;27;97949;-64